Texarkana, TX

12:20 PM CDT on October 01, 2014 (GMT -0500)
OurMiniCloud.com | Change Station
CLOSE
Current Station
Personal Weather Station
Location: Texarkana, TX
Elevation: 287 ft
Nearby Weather Stations

Elev 287 ft 33.34 °N, 94.05 °W | Updated 1 minute ago

Mostly Cloudy
Mostly Cloudy
84.2 °F
Feels Like 89 °F
N
3.4
Wind Variable Wind from SSW
Gusts 8.7 mph

Today
High -- | Low -- °F
--% Chance of Precip.
Yesterday
High -- | Low -- °F
Precip. -- in
7:11 AM 7:01 PM
Waxing Crescent, 49% visible
Pressure 29.89 in
Visibility 10.0 miles
Clouds Few 2100 ft
Scattered Clouds 2900 ft
Heat Index 89 °F
Dew Point 71 °F
Humidity 64%
Rainfall 0.00 in
Snow Depth Not available.
UV 6 out of 12
Pollen 7.60 out of 12
Air Quality Not available.
Flu Activity Not available.
SPECI KTXK 011709Z 19009KT 10SM FEW021 SCT029 28/22 A2989 RMK AO2 T02780222

More Conditions Fewer Conditions

Pressure 29.89 in
Visibility 10.0 miles
Clouds Few 2100 ft
Scattered Clouds 2900 ft
Heat Index 89 °F
Dew Point 71 °F
Humidity 64%
Rainfall 0.00 in
Snow Depth Not available.
UV 6 out of 12
Pollen 7.60 out of 12
Air Quality Not available.
Flu Activity Not available.
SPECI KTXK 011709Z 19009KT 10SM FEW021 SCT029 28/22 A2989 RMK AO2 T02780222

More Conditions Fewer Conditions

Nowcast | as of 11:32 am CDT on October 1, 2014

Scattered showers of mostly brief and light rain...have continued to expand northward and eastward across the area...with light rain possibly developing across much of northwest Louisiana and extreme southwest Arkansas...in addition to northeast Texas. Rainfall should remain under one tenth of an inch for the most part with these showers and they move to the north around 20 mph.

×

10-Day Weather Forecast

Almanac

Astronomy

Oct. 01, 2014 Rise Set
Actual Time 7:11 AM CDT 7:01 PM CDT
Civil Twilight 6:46 AM CDT 7:25 PM CDT
Nautical Twilight 6:17 AM CDT 7:54 PM CDT
Astronomical Twilight 5:48 AM CDT 8:23 PM CDT
Moon 2:00 PM CDT No Moon Set
Length of Visible Light 12h 39m
Length of Day
11h 50m
Tomorrow will be 2m 2s shorter.
Waxing Crescent, 49% of the Moon is Illuminated
Today
Waxing Crescent
Oct 1
First Quarter
Oct 8
Full
Oct 15
Last Quarter
Oct 23
New

Today's Extremes

State Highs State Lows

Community

WunderPhotos

Upload Photos

1,757,987 photos uploaded!

WunderBlogs® & News

By Dr. Jeff Masters
Director of Meteorology, Weather Underground
By Kari Strenfel
Meteorologist, Weather Underground
By Christopher C. Burt
Weather Historian, Weather Underground
October 1, 2014
October 1, 2014
October 1, 2014

Nearby

Snow Depth

Station Depth Elevation
No new snow has been reported.

Earthquake Activity

City Distance Mag. Time & Date
No recent earthquake activity has been reported nearby.
Minimum magnitude displayed is 2.5.

Coastal Water Temperatures

Place Temperature
No Stations Reporting

Nearby Weather Stations